Time;durP1;ratioP1;P1;durP2;ratioP2;P2;SDS_P1;SDS_P2;PMS_P1;PMS_P2;Temp;Humidity;BMP_temperature;BMP_pressure;BME280_temperature;BME280_humidity;BME280_pressure;Samples;Min_cycle;Max_cycle;Signal;HPM_P1;HPM_P2
2023/09/23 00:02:12;;;;;;;2.20;1.77;;;11.50;99.90;;;;;;4899775;29;20528;-69
2023/09/23 00:04:39;;;;;;;2.33;1.52;;;11.50;99.90;;;;;;4898781;29;20144;-68
2023/09/23 00:07:11;;;;;;;1.70;1.50;;;11.50;99.90;;;;;;4896517;29;20515;-69
2023/09/23 00:09:44;;;;;;;1.85;1.73;;;11.40;99.90;;;;;;4887495;29;20518;-67
2023/09/23 00:12:15;;;;;;;2.22;1.90;;;11.40;99.90;;;;;;4890365;29;20059;-68
2023/09/23 00:14:44;;;;;;;2.08;1.70;;;11.40;99.90;;;;;;4901334;29;20044;-68
2023/09/23 00:17:16;;;;;;;3.00;1.83;;;11.50;99.90;;;;;;4865594;29;20045;-68
2023/09/23 00:19:48;;;;;;;1.92;1.65;;;11.50;99.90;;;;;;4895147;29;20044;-65
2023/09/23 00:22:21;;;;;;;2.40;1.95;;;11.50;99.90;;;;;;4896073;29;20064;-67
2023/09/23 00:24:54;;;;;;;2.63;1.93;;;11.50;99.90;;;;;;4894120;29;20096;-70
2023/09/23 00:27:28;;;;;;;2.10;1.90;;;11.50;99.90;;;;;;4869594;29;20293;-70
2023/09/23 00:30:00;;;;;;;3.78;2.33;;;11.50;99.90;;;;;;4896498;29;20408;-69
2023/09/23 00:32:32;;;;;;;3.50;2.35;;;11.50;99.90;;;;;;4880822;29;20143;-69
2023/09/23 00:35:05;;;;;;;2.38;1.90;;;11.50;99.90;;;;;;4883912;29;20048;-69
2023/09/23 00:37:38;;;;;;;2.50;2.30;;;11.50;99.90;;;;;;4882849;29;20045;-68
2023/09/23 00:40:13;;;;;;;2.95;2.50;;;11.60;99.90;;;;;;4887074;29;20079;-67
2023/09/23 00:42:48;;;;;;;3.67;2.70;;;11.50;99.90;;;;;;4883574;29;20064;-68
2023/09/23 00:45:17;;;;;;;3.67;2.22;;;11.50;99.90;;;;;;4897151;29;20049;-65
2023/09/23 00:47:45;;;;;;;3.00;2.70;;;11.50;99.90;;;;;;4888464;29;20441;-69
2023/09/23 00:50:20;;;;;;;;;;;11.50;99.90;;;;;;4885460;29;20048;-69
2023/09/23 00:52:53;;;;;;;3.13;2.83;;;11.60;99.90;;;;;;4864207;29;19987;-68
2023/09/23 00:55:26;;;;;;;2.70;2.50;;;11.60;99.90;;;;;;4897499;29;20128;-69
2023/09/23 00:57:53;;;;;;;3.50;2.60;;;11.60;99.90;;;;;;4879546;29;20037;-67
2023/09/23 01:00:31;;;;;;;3.70;2.67;;;11.60;99.90;;;;;;4882299;29;20049;-69
2023/09/23 01:02:59;;;;;;;3.08;2.78;;;11.60;99.90;;;;;;4897770;29;20075;-68
2023/09/23 01:05:32;;;;;;;3.70;2.75;;;11.60;99.90;;;;;;4896197;29;20059;-71
2023/09/23 01:08:04;;;;;;;4.03;2.95;;;11.60;99.90;;;;;;4900061;29;20051;-67
2023/09/23 01:10:37;;;;;;;6.70;2.95;;;11.60;99.90;;;;;;4881685;29;20052;-68
2023/09/23 01:13:10;;;;;;;3.45;2.88;;;11.60;99.90;;;;;;4880099;29;20052;-68
2023/09/23 01:15:41;;;;;;;3.53;3.22;;;11.60;99.90;;;;;;4880564;29;20041;-68
2023/09/23 01:18:13;;;;;;;4.75;2.80;;;11.60;99.90;;;;;;4882889;29;20124;-69
2023/09/23 01:20:49;;;;;;;3.33;2.90;;;11.60;99.90;;;;;;4882175;29;20053;-68
2023/09/23 01:23:21;;;;;;;5.85;3.75;;;11.60;99.90;;;;;;4889664;29;20056;-68
2023/09/23 01:25:48;;;;;;;3.60;3.25;;;11.60;99.90;;;;;;4883020;29;20131;-70
2023/09/23 01:28:15;;;;;;;3.60;3.30;;;11.60;99.90;;;;;;4880886;29;20076;-68
2023/09/23 01:30:48;;;;;;;3.42;2.75;;;11.60;99.90;;;;;;4897858;29;20040;-68
2023/09/23 01:33:20;;;;;;;3.67;3.03;;;11.60;99.90;;;;;;4879172;29;20536;-68
2023/09/23 01:35:48;;;;;;;3.45;3.08;;;11.60;99.90;;;;;;4859972;29;20163;-69
2023/09/23 01:38:20;;;;;;;4.15;2.63;;;11.60;99.90;;;;;;4899910;29;20076;-68
2023/09/23 01:40:53;;;;;;;3.25;2.90;;;11.60;99.90;;;;;;4882916;29;20535;-69
2023/09/23 01:43:25;;;;;;;3.53;2.80;;;11.60;99.90;;;;;;4883323;29;20121;-68
2023/09/23 01:46:03;;;;;;;3.85;2.88;;;11.60;99.90;;;;;;4870768;29;20064;-68
2023/09/23 01:48:36;;;;;;;2.70;2.40;;;11.50;99.90;;;;;;4880737;29;20052;-67
2023/09/23 01:51:16;;;;;;;3.05;2.75;;;11.60;99.90;;;;;;4882241;29;20080;-69
2023/09/23 01:53:47;;;;;;;3.35;2.60;;;11.60;99.90;;;;;;4869073;29;20044;-69
2023/09/23 01:56:19;;;;;;;2.97;2.55;;;11.60;99.90;;;;;;4875038;29;20056;-68
2023/09/23 01:58:51;;;;;;;3.42;2.83;;;11.60;99.90;;;;;;4880756;29;20055;-68
2023/09/23 02:01:23;;;;;;;5.75;3.15;;;11.60;99.90;;;;;;4877731;29;20170;-69
2023/09/23 02:03:51;;;;;;;3.03;2.72;;;11.50;99.90;;;;;;4879777;29;20060;-68
2023/09/23 02:06:23;;;;;;;3.35;2.50;;;11.50;99.90;;;;;;4895293;29;20053;-68
2023/09/23 02:08:57;;;;;;;4.03;2.40;;;11.50;99.90;;;;;;4883236;29;20063;-70
2023/09/23 02:11:24;;;;;;;2.58;2.38;;;11.50;99.90;;;;;;4865521;29;20044;-68
2023/09/23 02:13:56;;;;;;;3.05;2.38;;;11.50;99.90;;;;;;4887464;29;20048;-68
2023/09/23 02:16:28;;;;;;;3.17;2.17;;;11.40;99.90;;;;;;4876248;29;20052;-68
2023/09/23 02:19:00;;;;;;;2.42;2.20;;;11.50;99.90;;;;;;4901043;29;20119;-68
2023/09/23 02:21:32;;;;;;;3.93;2.57;;;11.50;99.90;;;;;;4880619;29;20072;-69
2023/09/23 02:24:06;;;;;;;2.92;2.47;;;11.50;99.90;;;;;;4886989;29;20051;-67
2023/09/23 02:26:34;;;;;;;3.47;3.08;;;11.50;99.90;;;;;;4872809;29;20147;-68
2023/09/23 02:29:01;;;;;;;4.55;2.80;;;11.50;99.90;;;;;;4891416;29;20052;-69
2023/09/23 02:31:27;;;;;;;3.47;2.40;;;11.50;99.90;;;;;;4895303;29;20135;-68
2023/09/23 02:33:59;;;;;;;2.90;2.15;;;11.50;99.90;;;;;;4866980;29;20044;-68
2023/09/23 02:36:26;;;;;;;3.67;2.17;;;11.50;99.90;;;;;;4865761;29;20528;-68
2023/09/23 02:38:59;;;;;;;3.08;2.00;;;11.40;99.90;;;;;;4864389;29;20051;-67
2023/09/23 02:41:32;;;;;;;2.40;2.20;;;11.50;99.90;;;;;;4898658;29;20420;-69
2023/09/23 02:44:04;;;;;;;3.78;2.40;;;11.50;99.90;;;;;;4892698;29;20051;-68
2023/09/23 02:46:32;;;;;;;2.25;2.05;;;11.50;99.90;;;;;;4889636;29;20493;-68
2023/09/23 02:49:03;;;;;;;4.68;2.55;;;11.50;99.90;;;;;;4883427;29;20120;-68
2023/09/23 02:51:36;;;;;;;3.97;2.42;;;11.50;99.90;;;;;;4876792;29;20068;-69
2023/09/23 02:54:09;;;;;;;3.58;2.80;;;11.50;99.90;;;;;;4867797;29;20053;-69
2023/09/23 02:56:41;;;;;;;3.73;2.90;;;11.50;99.90;;;;;;4871226;29;20133;-69
2023/09/23 02:59:15;;;;;;;2.72;2.30;;;11.50;99.90;;;;;;4884094;29;20045;-69
2023/09/23 03:01:51;;;;;;;2.80;2.30;;;11.40;99.90;;;;;;4893699;29;20047;-69
2023/09/23 03:04:24;;;;;;;3.17;2.72;;;11.50;99.90;;;;;;4894919;29;20036;-69
2023/09/23 03:07:00;;;;;;;3.15;2.70;;;11.40;99.90;;;;;;4864211;29;20135;-69
2023/09/23 03:09:32;;;;;;;3.55;2.67;;;11.40;99.90;;;;;;4893449;29;20050;-68
2023/09/23 03:12:04;;;;;;;3.17;2.83;;;11.50;99.90;;;;;;4881003;29;20044;-69
2023/09/23 03:14:38;;;;;;;3.50;2.70;;;11.50;99.90;;;;;;4878442;29;20060;-69
2023/09/23 03:17:12;;;;;;;3.85;2.80;;;11.50;99.90;;;;;;4895270;29;20532;-69
2023/09/23 03:19:44;;;;;;;3.58;2.90;;;11.50;99.90;;;;;;4863312;29;20037;-68
2023/09/23 03:22:21;;;;;;;3.65;2.72;;;11.50;99.90;;;;;;4879140;29;20404;-68
2023/09/23 03:24:48;;;;;;;3.28;2.80;;;11.50;99.90;;;;;;4879404;29;20072;-68
2023/09/23 03:27:23;;;;;;;5.15;4.10;;;11.60;99.90;;;;;;4896587;29;20049;-68
2023/09/23 03:29:57;;;;;;;4.10;3.70;;;11.50;99.90;;;;;;4867751;29;20577;-68
2023/09/23 03:32:24;;;;;;;5.50;4.30;;;11.50;99.90;;;;;;4892654;29;20051;-68
2023/09/23 03:34:59;;;;;;;6.75;4.00;;;11.60;99.90;;;;;;4879789;29;20055;-67
2023/09/23 03:37:29;;;;;;;5.10;4.60;;;11.60;99.90;;;;;;4865837;29;20729;-69
2023/09/23 03:39:56;;;;;;;4.57;3.70;;;11.60;99.90;;;;;;4878950;29;20131;-68
2023/09/23 03:42:23;;;;;;;5.13;4.13;;;11.50;99.90;;;;;;4882328;29;20720;-67
2023/09/23 03:44:50;;;;;;;5.13;3.80;;;11.50;99.90;;;;;;4872015;29;20120;-70
2023/09/23 03:47:25;;;;;;;4.32;3.65;;;11.50;99.90;;;;;;4881170;29;20648;-68
2023/09/23 03:49:57;;;;;;;4.55;4.00;;;11.40;99.90;;;;;;4890657;29;20056;-69
2023/09/23 03:52:29;;;;;;;4.65;4.07;;;11.50;99.90;;;;;;4865934;29;20044;-69
2023/09/23 03:55:03;;;;;;;9.07;4.05;;;11.50;99.90;;;;;;4874343;29;20066;-69
2023/09/23 03:57:30;;;;;;;6.05;3.80;;;11.50;99.90;;;;;;4884445;29;20041;-68
2023/09/23 04:00:12;;;;;;;4.15;3.58;;;11.50;99.90;;;;;;4895608;29;20123;-68
2023/09/23 04:02:47;;;;;;;5.45;4.13;;;11.40;99.90;;;;;;4880296;29;20053;-69
2023/09/23 04:05:20;;;;;;;6.97;4.15;;;11.50;99.90;;;;;;4893874;29;20036;-69
2023/09/23 04:07:51;;;;;;;4.07;3.17;;;11.50;99.90;;;;;;4894934;29;20052;-69
2023/09/23 04:10:23;;;;;;;3.42;2.92;;;11.40;99.90;;;;;;4882215;29;20044;-68
2023/09/23 04:12:51;;;;;;;4.18;3.40;;;11.40;99.90;;;;;;4896143;29;20412;-68
2023/09/23 04:15:21;;;;;;;5.38;3.92;;;11.50;99.90;;;;;;4890525;29;20048;-68
2023/09/23 04:17:53;;;;;;;4.78;3.42;;;11.40;99.90;;;;;;4896257;29;20041;-69
2023/09/23 04:20:25;;;;;;;4.97;3.88;;;11.40;99.90;;;;;;4879949;29;20478;-68
2023/09/23 04:22:58;;;;;;;4.05;3.65;;;11.50;99.90;;;;;;4898452;29;20516;-68
2023/09/23 04:25:29;;;;;;;6.38;3.60;;;11.40;99.90;;;;;;4894441;29;20041;-69
2023/09/23 04:27:56;;;;;;;3.75;3.38;;;11.40;99.90;;;;;;4901246;29;20437;-68
2023/09/23 04:30:28;;;;;;;5.15;3.35;;;11.40;99.90;;;;;;4888919;29;20036;-70
2023/09/23 04:33:00;;;;;;;3.65;3.35;;;11.40;99.90;;;;;;4896394;29;20063;-69
2023/09/23 04:35:34;;;;;;;4.25;3.30;;;11.40;99.90;;;;;;4901312;29;20033;-69
2023/09/23 04:38:06;;;;;;;3.72;3.13;;;11.40;99.90;;;;;;4896330;29;20064;-69
2023/09/23 04:40:39;;;;;;;6.38;3.08;;;11.40;99.90;;;;;;4884105;29;20041;-70
2023/09/23 04:43:12;;;;;;;3.58;2.90;;;11.40;99.90;;;;;;4883104;29;20048;-68
2023/09/23 04:45:44;;;;;;;5.72;2.70;;;11.40;99.90;;;;;;4896329;29;20051;-68
2023/09/23 04:48:11;;;;;;;3.58;2.28;;;11.40;99.90;;;;;;4889982;29;20120;-68
2023/09/23 04:50:46;;;;;;;4.70;2.60;;;11.40;99.90;;;;;;4887518;29;20116;-69
2023/09/23 04:53:18;;;;;;;4.72;2.65;;;11.30;99.90;;;;;;4886907;29;20120;-69
2023/09/23 04:55:50;;;;;;;3.00;2.20;;;11.30;99.90;;;;;;4875616;29;20045;-68
2023/09/23 04:58:22;;;;;;;4.60;2.95;;;11.30;99.90;;;;;;4891659;29;20049;-68
2023/09/23 05:00:54;;;;;;;5.28;2.20;;;11.30;99.90;;;;;;4890417;29;20542;-70
2023/09/23 05:03:26;;;;;;;2.88;1.92;;;11.30;99.90;;;;;;4884839;29;20053;-68
2023/09/23 05:05:58;;;;;;;2.40;1.98;;;11.30;99.90;;;;;;4872664;29;20156;-69
2023/09/23 05:08:31;;;;;;;4.88;2.13;;;11.30;99.90;;;;;;4889321;29;20049;-69
2023/09/23 05:11:06;;;;;;;3.03;2.17;;;11.30;99.90;;;;;;4889511;29;20095;-68
2023/09/23 05:13:38;;;;;;;2.80;1.90;;;11.30;99.90;;;;;;4878891;29;20051;-67
2023/09/23 05:16:10;;;;;;;3.28;2.17;;;11.30;99.90;;;;;;4889570;29;20067;-69
2023/09/23 05:18:42;;;;;;;3.20;2.20;;;11.30;99.90;;;;;;4862639;29;20510;-68
2023/09/23 05:21:13;;;;;;;3.80;1.80;;;11.30;99.90;;;;;;4871003;29;20044;-68
2023/09/23 05:23:48;;;;;;;2.30;1.70;;;11.20;99.90;;;;;;4870863;29;20510;-68
2023/09/23 05:26:16;;;;;;;3.97;1.88;;;11.20;99.90;;;;;;4882528;29;20128;-70
2023/09/23 05:28:43;;;;;;;1.83;1.25;;;11.20;99.90;;;;;;4884539;29;20505;-68
2023/09/23 05:31:15;;;;;;;2.03;1.50;;;11.20;99.90;;;;;;4872168;29;20044;-68
2023/09/23 05:33:47;;;;;;;3.20;1.63;;;11.10;99.90;;;;;;4887372;29;20060;-70
2023/09/23 05:36:20;;;;;;;2.88;1.40;;;11.20;99.90;;;;;;4872309;29;20045;-70
2023/09/23 05:38:52;;;;;;;2.25;1.23;;;11.20;99.90;;;;;;4878078;29;20045;-68
2023/09/23 05:41:24;;;;;;;3.92;1.15;;;11.20;99.90;;;;;;4892568;29;20044;-68
2023/09/23 05:43:56;;;;;;;3.42;1.40;;;11.20;99.90;;;;;;4895290;29;20056;-70
2023/09/23 05:46:28;;;;;;;2.55;1.10;;;11.20;99.90;;;;;;4879914;29;20423;-69
2023/09/23 05:48:55;;;;;;;3.05;1.10;;;11.20;99.90;;;;;;4878111;29;20143;-69
2023/09/23 05:51:27;;;;;;;2.83;1.23;;;11.30;99.90;;;;;;4873654;29;20044;-69
2023/09/23 05:54:00;;;;;;;4.78;1.23;;;11.20;99.90;;;;;;4897577;29;20058;-70
2023/09/23 05:56:32;;;;;;;2.17;1.30;;;11.30;99.90;;;;;;4877214;29;20037;-69
2023/09/23 05:59:07;;;;;;;3.08;1.30;;;11.30;99.90;;;;;;4885785;29;20048;-70
2023/09/23 06:01:35;;;;;;;2.22;1.40;;;11.30;99.90;;;;;;4873925;29;20572;-70
2023/09/23 06:04:02;;;;;;;1.90;1.20;;;11.40;99.90;;;;;;4884906;29;20057;-70
2023/09/23 06:06:35;;;;;;;1.45;1.02;;;11.30;99.90;;;;;;4883537;29;20601;-70
2023/09/23 06:09:07;;;;;;;1.58;1.02;;;11.30;99.90;;;;;;4890945;29;20055;-70
2023/09/23 06:11:34;;;;;;;5.15;1.33;;;11.40;99.90;;;;;;4889122;29;20455;-70
2023/09/23 06:14:08;;;;;;;1.67;0.93;;;11.30;99.90;;;;;;4888448;29;20053;-69
2023/09/23 06:16:35;;;;;;;2.85;1.10;;;11.60;99.90;;;;;;4889330;29;20127;-69
2023/09/23 06:19:07;;;;;;;2.17;1.27;;;11.70;99.90;;;;;;4895360;29;20032;-70
2023/09/23 06:21:38;;;;;;;2.20;1.00;;;11.70;99.90;;;;;;4872355;29;20140;-69
2023/09/23 06:24:10;;;;;;;2.67;1.20;;;11.70;99.90;;;;;;4884829;29;20052;-69
2023/09/23 06:26:42;;;;;;;2.53;1.60;;;11.60;99.90;;;;;;4882474;29;20049;-69
2023/09/23 06:29:14;;;;;;;1.45;1.05;;;11.50;99.90;;;;;;4867735;29;20040;-70
2023/09/23 06:31:46;;;;;;;1.52;0.90;;;11.50;99.90;;;;;;4878846;29;20526;-69
2023/09/23 06:34:18;;;;;;;2.08;1.20;;;11.50;99.90;;;;;;4887118;29;20044;-69
2023/09/23 06:36:46;;;;;;;2.72;1.30;;;11.40;99.90;;;;;;4887250;29;20033;-69
2023/09/23 06:39:12;;;;;;;2.60;1.70;;;11.50;99.90;;;;;;4888382;29;20072;-69
2023/09/23 06:41:45;;;;;;;2.30;1.35;;;11.50;99.90;;;;;;4887973;29;20044;-69
2023/09/23 06:44:17;;;;;;;1.77;1.30;;;11.50;99.90;;;;;;4887369;29;20056;-69
2023/09/23 06:46:54;;;;;;;1.95;1.48;;;11.50;99.90;;;;;;4877807;29;20040;-69
2023/09/23 06:49:26;;;;;;;2.13;1.15;;;11.50;99.90;;;;;;4869796;29;20099;-69
2023/09/23 06:51:58;;;;;;;2.88;1.20;;;11.50;99.90;;;;;;4886591;29;20051;-69
2023/09/23 06:54:30;;;;;;;1.58;1.08;;;11.50;99.90;;;;;;4865424;29;20079;-70
2023/09/23 06:57:03;;;;;;;2.03;1.10;;;11.50;99.90;;;;;;4883001;29;20049;-70
2023/09/23 06:59:35;;;;;;;1.70;0.85;;;11.50;99.90;;;;;;4869749;29;20131;-70
2023/09/23 07:02:07;;;;;;;2.63;1.10;;;11.50;99.90;;;;;;4866174;29;20053;-70
2023/09/23 07:04:39;;;;;;;1.35;1.02;;;11.50;99.90;;;;;;4888099;29;20064;-70
2023/09/23 07:07:11;;;;;;;3.47;1.30;;;11.50;99.90;;;;;;4889715;29;20044;-70
2023/09/23 07:09:43;;;;;;;1.75;1.02;;;11.50;99.90;;;;;;4890228;29;20075;-70
2023/09/23 07:12:15;;;;;;;1.55;0.98;;;11.50;99.90;;;;;;4887268;29;20045;-69
2023/09/23 07:14:47;;;;;;;2.35;1.10;;;11.60;99.90;;;;;;4889974;29;20036;-69
2023/09/23 07:17:14;;;;;;;1.83;1.15;;;11.60;99.90;;;;;;4885272;29;20551;-69
2023/09/23 07:19:47;;;;;;;2.28;1.15;;;11.70;99.90;;;;;;4890076;29;20068;-68
2023/09/23 07:22:14;;;;;;;1.70;0.70;;;11.70;99.90;;;;;;4872948;29;20057;-69
2023/09/23 07:24:46;;;;;;;2.90;1.35;;;11.70;99.90;;;;;;4883167;29;20052;-68
2023/09/23 07:27:18;;;;;;;2.80;1.23;;;11.80;99.90;;;;;;4880653;29;20048;-68
2023/09/23 07:29:50;;;;;;;2.08;0.80;;;11.90;99.90;;;;;;4887712;29;20409;-70
2023/09/23 07:32:17;;;;;;;1.25;1.05;;;12.00;99.90;;;;;;4884490;29;20535;-69
2023/09/23 07:34:49;;;;;;;1.90;1.30;;;12.00;99.90;;;;;;4866696;29;20536;-68
2023/09/23 07:37:20;;;;;;;1.75;1.00;;;12.00;99.90;;;;;;4889317;29;20047;-68
2023/09/23 07:39:52;;;;;;;2.90;1.85;;;12.00;99.90;;;;;;4877842;29;20052;-70
2023/09/23 07:42:24;;;;;;;2.10;1.30;;;12.10;99.90;;;;;;4872277;29;20049;-69
2023/09/23 07:44:57;;;;;;;3.72;1.13;;;12.20;99.90;;;;;;4889930;29;20063;-68
2023/09/23 07:47:29;;;;;;;2.72;0.80;;;12.20;99.90;;;;;;4886433;29;20076;-68
2023/09/23 07:50:01;;;;;;;1.92;0.73;;;12.20;99.90;;;;;;4888222;29;20051;-68
2023/09/23 07:52:34;;;;;;;3.22;0.60;;;12.30;99.90;;;;;;4894098;29;20123;-69
2023/09/23 07:55:06;;;;;;;;;;;12.20;99.90;;;;;;4890081;29;20056;-69
2023/09/23 07:57:33;;;;;;;1.13;0.80;;;12.30;99.90;;;;;;4873021;29;19923;-69
2023/09/23 08:00:08;;;;;;;1.73;0.77;;;12.40;99.90;;;;;;4887711;29;20506;-69
2023/09/23 08:02:40;;;;;;;1.88;1.02;;;12.50;99.90;;;;;;4891515;29;20060;-69
2023/09/23 08:05:12;;;;;;;2.33;0.80;;;12.50;99.90;;;;;;4878436;29;20044;-69
2023/09/23 08:07:44;;;;;;;1.23;1.02;;;12.50;99.90;;;;;;4890993;29;20136;-69
2023/09/23 08:10:16;;;;;;;1.33;0.80;;;12.50;99.90;;;;;;4881745;29;20669;-68
2023/09/23 08:12:48;;;;;;;1.75;0.80;;;12.40;99.90;;;;;;4865118;29;20096;-68
2023/09/23 08:15:15;;;;;;;1.17;0.85;;;12.30;99.90;;;;;;4892030;29;20135;-69
2023/09/23 08:17:47;;;;;;;1.80;0.95;;;12.40;99.90;;;;;;4873897;29;20056;-69
2023/09/23 08:20:23;;;;;;;2.03;0.80;;;12.40;99.90;;;;;;4874955;29;20076;-69
2023/09/23 08:22:50;;;;;;;1.27;0.73;;;12.40;99.90;;;;;;4890773;29;20068;-70
2023/09/23 08:25:17;;;;;;;1.98;0.70;;;12.50;99.90;;;;;;4887812;29;20048;-70
2023/09/23 08:27:50;;;;;;;1.30;1.05;;;12.50;99.90;;;;;;4884175;29;20049;-70
2023/09/23 08:30:22;;;;;;;5.40;0.95;;;12.60;99.90;;;;;;4876631;29;20055;-69
2023/09/23 08:32:55;;;;;;;1.80;0.98;;;12.60;99.90;;;;;;4886484;29;20048;-72
2023/09/23 08:35:28;;;;;;;1.63;1.02;;;12.70;99.90;;;;;;4867041;29;20049;-69
2023/09/23 08:38:00;;;;;;;1.88;1.15;;;12.80;99.90;;;;;;4892335;29;20055;-70
2023/09/23 08:40:34;;;;;;;2.35;1.45;;;12.90;99.90;;;;;;4876988;29;20032;-70
2023/09/23 08:43:04;;;;;;;2.55;0.90;;;12.90;99.90;;;;;;4890268;29;20045;-69
2023/09/23 08:45:43;;;;;;;1.25;0.98;;;13.00;99.90;;;;;;4875172;29;20049;-70
2023/09/23 08:48:15;;;;;;;11.43;1.48;;;13.10;99.90;;;;;;4889445;29;20414;-69
2023/09/23 08:50:51;;;;;;;2.10;0.70;;;13.10;99.90;;;;;;4886467;29;20517;-70
2023/09/23 08:53:26;;;;;;;4.68;1.10;;;13.10;99.90;;;;;;4894083;29;20059;-70
2023/09/23 08:55:59;;;;;;;1.63;1.20;;;13.20;99.90;;;;;;4889656;29;20449;-70
2023/09/23 08:58:31;;;;;;;;;;;13.30;99.90;;;;;;4884425;29;20051;-71
2023/09/23 09:00:58;;;;;;;2.38;1.20;;;13.40;99.90;;;;;;4881545;29;19933;-70
2023/09/23 09:03:31;;;;;;;2.95;1.30;;;13.70;99.90;;;;;;4876033;29;20055;-69
2023/09/23 09:06:14;;;;;;;1.50;0.93;;;14.00;99.90;;;;;;4886201;29;20154;-69
2023/09/23 09:08:42;;;;;;;2.00;1.63;;;14.10;99.90;;;;;;4887891;29;20044;-71
2023/09/23 09:11:21;;;;;;;2.28;0.85;;;14.20;99.90;;;;;;4860019;29;20076;-70
2023/09/23 09:13:53;;;;;;;2.10;0.98;;;14.20;99.90;;;;;;4889427;29;20052;-69
2023/09/23 09:16:21;;;;;;;1.58;0.90;;;14.10;99.90;;;;;;4891121;29;20079;-70
2023/09/23 09:18:53;;;;;;;1.80;0.93;;;14.00;99.90;;;;;;4890224;29;20124;-69
2023/09/23 09:21:26;;;;;;;4.07;1.48;;;14.00;99.90;;;;;;4892725;29;20043;-68
2023/09/23 09:23:58;;;;;;;5.22;0.77;;;13.90;99.90;;;;;;4888016;29;20068;-69
2023/09/23 09:26:35;;;;;;;0.88;0.47;;;13.90;99.90;;;;;;4870550;29;20056;-68
2023/09/23 09:29:07;;;;;;;0.95;0.60;;;13.70;99.90;;;;;;4888110;29;20056;-68
2023/09/23 09:31:42;;;;;;;2.73;0.67;;;13.70;99.90;;;;;;4886189;29;20540;-68
2023/09/23 09:34:16;;;;;;;1.27;0.70;;;13.80;99.90;;;;;;4887447;29;20375;-68
2023/09/23 09:36:56;;;;;;;1.40;0.70;;;13.90;99.90;;;;;;4887170;29;20155;-68
2023/09/23 09:39:33;;;;;;;2.58;0.60;;;14.10;99.90;;;;;;4891511;29;20051;-69
2023/09/23 09:42:02;;;;;;;0.85;0.50;;;14.30;99.90;;;;;;4889308;29;20053;-68
2023/09/23 09:44:30;;;;;;;4.47;0.70;;;14.40;99.90;;;;;;4889757;29;20140;-68
2023/09/23 09:47:03;;;;;;;1.33;0.60;;;14.30;99.90;;;;;;4889966;29;20492;-67
2023/09/23 09:49:37;;;;;;;3.53;0.57;;;14.20;99.90;;;;;;4888667;29;20075;-67
2023/09/23 09:52:11;;;;;;;2.80;0.68;;;14.20;99.90;;;;;;4890322;29;20152;-67
2023/09/23 09:54:44;;;;;;;2.45;0.60;;;14.20;99.90;;;;;;4886797;29;20378;-67
2023/09/23 09:57:12;;;;;;;1.52;0.70;;;14.30;99.90;;;;;;4884741;29;20497;-67
2023/09/23 09:59:41;;;;;;;4.28;0.60;;;14.30;99.90;;;;;;4867421;29;20087;-69
2023/09/23 10:02:10;;;;;;;3.28;0.80;;;14.40;99.90;;;;;;4892762;29;20044;-68
2023/09/23 10:04:46;;;;;;;;;;;14.50;99.90;;;;;;4884522;29;20041;-68
2023/09/23 10:07:22;;;;;;;2.42;0.70;;;14.60;99.90;;;;;;4867374;29;19924;-68
2023/09/23 10:09:58;;;;;;;0.90;0.50;;;14.70;99.90;;;;;;4881756;29;20037;-69
2023/09/23 10:12:31;;;;;;;1.48;0.60;;;14.60;99.90;;;;;;4889278;29;20397;-68
2023/09/23 10:15:03;;;;;;;1.05;0.63;;;14.50;99.90;;;;;;4886388;29;20132;-68
2023/09/23 10:17:37;;;;;;;2.20;0.70;;;14.50;99.90;;;;;;4878508;29;20037;-67
2023/09/23 10:20:15;;;;;;;1.38;1.05;;;14.50;99.90;;;;;;4889605;29;20410;-67
2023/09/23 10:22:54;;;;;;;1.50;0.80;;;14.50;99.90;;;;;;4870337;29;20067;-69
2023/09/23 10:25:21;;;;;;;1.88;0.70;;;14.60;99.90;;;;;;4886713;29;20504;-67
2023/09/23 10:27:59;;;;;;;1.70;0.70;;;14.50;99.90;;;;;;4891764;29;20653;-68
2023/09/23 10:30:33;;;;;;;2.88;0.85;;;14.60;99.90;;;;;;4889212;29;20052;-68
2023/09/23 10:33:00;;;;;;;0.93;0.52;;;14.70;99.90;;;;;;4880957;29;20136;-68
2023/09/23 10:35:33;;;;;;;2.22;0.90;;;14.80;99.90;;;;;;4868899;29;21479;-68
2023/09/23 10:38:05;;;;;;;2.00;0.85;;;14.70;99.90;;;;;;4871736;29;20053;-68
2023/09/23 10:40:37;;;;;;;2.08;1.00;;;14.80;99.90;;;;;;4884367;29;20040;-69
2023/09/23 10:43:10;;;;;;;1.98;0.80;;;14.80;99.90;;;;;;4882426;29;20525;-68
2023/09/23 10:45:41;;;;;;;3.80;0.80;;;14.90;99.90;;;;;;4876299;29;20127;-67
2023/09/23 10:48:16;;;;;;;2.38;0.85;;;14.90;99.90;;;;;;4886802;29;20121;-66
2023/09/23 10:50:44;;;;;;;1.83;1.00;;;14.90;99.90;;;;;;4890790;29;20075;-67
2023/09/23 10:53:15;;;;;;;3.63;0.80;;;14.90;99.90;;;;;;4872833;29;20052;-69
2023/09/23 10:55:50;;;;;;;1.90;0.50;;;15.00;99.90;;;;;;4889789;29;20091;-67
2023/09/23 10:58:23;;;;;;;1.85;0.60;;;15.00;99.90;;;;;;4887742;29;20112;-68
2023/09/23 11:00:57;;;;;;;1.63;0.65;;;15.00;99.90;;;;;;4878069;29;20051;-69
2023/09/23 11:03:30;;;;;;;1.35;0.80;;;15.20;99.90;;;;;;4886097;29;20053;-69
2023/09/23 11:05:57;;;;;;;2.55;0.77;;;15.10;99.90;;;;;;4870565;29;20543;-67
2023/09/23 11:08:29;;;;;;;0.90;0.70;;;15.10;99.90;;;;;;4866258;29;20052;-68
2023/09/23 11:11:01;;;;;;;4.07;0.88;;;15.20;99.90;;;;;;4887744;29;20127;-67
2023/09/23 11:13:33;;;;;;;1.55;0.70;;;15.20;99.90;;;;;;4888005;29;20045;-69
2023/09/23 11:16:09;;;;;;;3.13;0.77;;;15.10;99.90;;;;;;4860683;29;20060;-67
2023/09/23 11:18:42;;;;;;;2.45;1.02;;;15.10;99.90;;;;;;4888228;29;20039;-68
2023/09/23 11:21:15;;;;;;;2.78;0.80;;;15.00;99.90;;;;;;4889075;29;20037;-70
2023/09/23 11:23:57;;;;;;;1.08;0.60;;;15.10;99.90;;;;;;4866936;29;20063;-68
2023/09/23 11:26:30;;;;;;;2.25;0.80;;;15.10;99.90;;;;;;4875502;29;20413;-67
2023/09/23 11:29:01;;;;;;;2.17;0.70;;;15.20;99.90;;;;;;4895785;29;20044;-68
2023/09/23 11:31:28;;;;;;;1.35;0.85;;;15.30;99.90;;;;;;4880443;29;20136;-67
2023/09/23 11:34:01;;;;;;;3.97;1.30;;;15.40;99.90;;;;;;4865874;29;20076;-68
2023/09/23 11:36:28;;;;;;;1.88;0.68;;;15.50;99.90;;;;;;4895540;29;20123;-67
2023/09/23 11:39:01;;;;;;;2.85;0.70;;;15.60;99.90;;;;;;4890117;29;20048;-68
2023/09/23 11:41:32;;;;;;;2.35;0.70;;;15.60;99.90;;;;;;4891632;29;20044;-68
2023/09/23 11:43:59;;;;;;;1.85;0.60;;;15.60;99.90;;;;;;4891706;29;20112;-67
2023/09/23 11:46:31;;;;;;;3.38;1.00;;;15.60;99.90;;;;;;4880752;29;20559;-68
2023/09/23 11:49:03;;;;;;;3.17;0.80;;;15.60;99.90;;;;;;4891115;29;20045;-68
2023/09/23 11:51:30;;;;;;;1.23;0.60;;;15.60;99.90;;;;;;4891861;29;20132;-67
2023/09/23 11:54:01;;;;;;;2.25;1.20;;;15.80;99.90;;;;;;4891341;29;20077;-68
2023/09/23 11:56:28;;;;;;;1.85;0.70;;;16.00;99.90;;;;;;4889134;29;20048;-70
2023/09/23 11:59:00;;;;;;;1.27;0.70;;;16.10;99.90;;;;;;4890310;29;20056;-71
2023/09/23 12:01:32;;;;;;;2.80;0.90;;;16.20;99.90;;;;;;4877036;29;20425;-69
2023/09/23 12:04:04;;;;;;;1.40;0.85;;;16.30;99.90;;;;;;4889801;29;20041;-69
2023/09/23 12:06:36;;;;;;;2.03;0.70;;;16.40;99.90;;;;;;4880857;29;20533;-69
2023/09/23 12:09:09;;;;;;;1.40;0.98;;;16.30;99.90;;;;;;4870070;29;20143;-68
2023/09/23 12:11:40;;;;;;;2.25;0.80;;;16.30;99.90;;;;;;4880014;29;20055;-70
2023/09/23 12:14:08;;;;;;;2.90;1.00;;;16.30;99.90;;;;;;4870398;29;20061;-69
2023/09/23 12:16:36;;;;;;;2.28;0.70;;;16.10;99.90;;;;;;4870478;29;20073;-71
2023/09/23 12:19:08;;;;;;;1.48;0.70;;;15.90;99.90;;;;;;4892118;29;20037;-70
2023/09/23 12:21:40;;;;;;;1.40;0.82;;;16.00;99.90;;;;;;4891343;29;20051;-68
2023/09/23 12:24:12;;;;;;;2.67;0.80;;;16.00;99.90;;;;;;4875257;29;20124;-70
2023/09/23 12:26:39;;;;;;;2.42;1.00;;;15.90;99.90;;;;;;4890754;29;20047;-70
2023/09/23 12:29:06;;;;;;;1.73;0.80;;;15.90;99.90;;;;;;4888661;29;20128;-69
2023/09/23 12:31:38;;;;;;;1.88;0.77;;;15.90;99.90;;;;;;4885783;29;20052;-69
2023/09/23 12:34:05;;;;;;;2.13;0.77;;;15.80;99.90;;;;;;4881009;29;20051;-69
2023/09/23 12:36:37;;;;;;;1.52;0.70;;;15.80;99.90;;;;;;4879453;29;20048;-69
2023/09/23 12:39:10;;;;;;;2.28;0.73;;;15.70;99.90;;;;;;4868355;29;20426;-69
2023/09/23 12:41:42;;;;;;;0.88;0.63;;;15.70;99.90;;;;;;4866990;29;20072;-70
2023/09/23 12:44:15;;;;;;;1.07;0.57;;;15.60;99.90;;;;;;4876790;29;20051;-70
2023/09/23 12:46:47;;;;;;;1.58;0.77;;;15.60;99.90;;;;;;4890460;29;20292;-69
2023/09/23 12:49:19;;;;;;;1.17;0.68;;;15.60;99.90;;;;;;4871913;29;20056;-68
2023/09/23 12:51:51;;;;;;;1.48;0.68;;;15.60;99.90;;;;;;4881050;29;20531;-68
2023/09/23 12:54:23;;;;;;;2.83;0.90;;;15.70;99.90;;;;;;4891527;29;20063;-69
2023/09/23 12:56:55;;;;;;;2.22;1.63;;;15.70;99.90;;;;;;4891983;29;20477;-70
2023/09/23 12:59:26;;;;;;;3.88;0.80;;;15.80;99.90;;;;;;4891222;29;20044;-69
2023/09/23 13:01:53;;;;;;;1.50;0.73;;;15.90;99.90;;;;;;4889798;29;20033;-69
2023/09/23 13:04:26;;;;;;;3.22;0.70;;;16.00;99.90;;;;;;4884192;29;20053;-70
2023/09/23 13:06:59;;;;;;;1.30;0.80;;;16.20;99.90;;;;;;4873324;29;20056;-70
2023/09/23 13:09:25;;;;;;;1.52;0.57;;;16.30;99.90;;;;;;4881870;29;20045;-68
2023/09/23 13:11:52;;;;;;;1.27;0.60;;;16.50;99.90;;;;;;4871647;29;20064;-69